• Join FlightAware (Why Join?)
  • Login
  • US Flag 
05:42PM EDT


 

Airport Tracker/Info


-or-


 

Live Flight TrackerFlight Track Log ✈ N675MC ✈ 18-Sep-2013 ✈ KSTL - KDTW

Flight Track Log - Related Links

Times and Time Zones

All times are in EDT time to prevent confusion due to time zone crossing. See the N675MC flight status page for this flight to view local times or setup timezone preferences in your user account.

Time Position Orientation Groundspeed Altitude Reporting Facility
EDT Latitude Longitude Course Direction KTS MPH feet Rate Location/Type
07:29PM 38.7333 -90.3167 79° East 177 204 1,800  Level Gateway (St. Louis) TRACON
07:30PM 38.7167 -90.2333 104° East 248 285 4,500 2,160 Climbing Gateway (St. Louis) TRACON
07:31PM 38.7181 -90.1531 89° East 284 327 6,100 2,040 Climbing Kansas City Center
07:32PM 38.9962 -89.9175 74° East  Level Estimated
07:32PM 38.7369 -90.0503 77° East 299 344 8,800  Level Kansas City Center
07:33PM 38.9670 -89.7842 106° East  Level FlightAware Approximate
07:33PM 38.7539 -89.9386 79° East 315 362 10,700  Level Kansas City Center
07:34PM 39.0297 -89.6717 90° East  Level Estimated
07:34PM 38.7664 -89.7778 84° East 369 425 13,000  Level Kansas City Center
07:35PM 39.0923 -89.5589 79° East  Level Estimated
07:35PM 38.7750 -89.6361 85° East 382 440 15,300  Level Kansas City Center
07:36PM 38.7900 -89.4936 82° East 400 460 17,500 1,920 Climbing Kansas City Center
07:37PM 38.8081 -89.3344 82° East 419 482 19,300 1,740 Climbing Kansas City Center
07:38PM 38.8114 -89.1797 88° East 432 497 21,200 1,740 Climbing Kansas City Center
07:39PM 38.8128 -89.0208 89° East 445 512 22,900 1,560 Climbing Kansas City Center
07:40PM 38.8453 -88.8547 76° East 452 520 24,500 960 Climbing Kansas City Center
07:41PM 38.9072 -88.7100 61° Northeast 460 529 25,000 1,440 Climbing Kansas City Center
07:42PM 38.9558 -88.5392 70° East 471 542 27,500 1,860 Climbing Kansas City Center
07:43PM 38.9964 -88.3869 71° East 457 526 28,900 720 Climbing Kansas City Center
07:45PM 39.0325 -88.2272 74° East 459 528 29,000  Climbing Kansas City Center
07:45PM 39.0536 -88.0889 79° East 491 565 28,900  Descending Indianapolis Center
07:46PM 39.0858 -87.9136 77° East 498 573 29,000  Climbing Indianapolis Center
07:47PM 39.1231 -87.7025 77° East 500 575 29,000  Level Indianapolis Center
07:48PM 39.1475 -87.5431 79° East 498 573 29,000  Level Indianapolis Center
07:49PM 39.1711 -87.3675 80° East 499 574 29,000  Level Indianapolis Center
07:51PM 39.1953 -87.1933 80° East 497 572 29,000  Level Indianapolis Center
07:52PM 39.2250 -86.9833 80° East 500 575 29,000  Level Indianapolis Center
07:53PM 39.2517 -86.8100 79° East 499 574 29,000  Level Indianapolis Center
07:54PM 39.2858 -86.6389 75° East 498 573 29,000  Level Indianapolis Center
07:55PM 39.3233 -86.4689 74° East 497 572 29,000  Level Indianapolis Center
07:56PM 39.3650 -86.3028 72° East 494 568 29,000  Level Indianapolis Center
07:57PM 39.4519 -86.1314 57° Northeast 483 556 29,000  Level Indianapolis Center
07:58PM 39.5483 -86.0133 43° Northeast 483 556 29,000  Level Indianapolis Center
07:59PM 39.6422 -85.8922 45° Northeast 484 557 29,000  Level Indianapolis Center
08:00PM 39.7378 -85.7722 44° Northeast 484 557 29,000  Level Indianapolis Center
08:01PM 39.8322 -85.6525 44° Northeast 481 554 29,000  Level Indianapolis Center
08:02PM 39.9442 -85.5036 46° Northeast 481 554 29,000  Level Indianapolis Center
08:03PM 40.0386 -85.3831 44° Northeast 480 552 29,000  Level Indianapolis Center
08:04PM 40.1319 -85.2625 45° Northeast 475 547 29,000 -300 Level Indianapolis Center
08:05PM 40.2261 -85.1439 44° Northeast 474 545 28,500 -780 Descending Indianapolis Center
08:06PM 40.3197 -85.0328 42° Northeast 460 529 27,500 -1,020 Descending Indianapolis Center
08:07PM 40.4117 -84.9206 43° Northeast 454 522 26,500 -1,260 Descending Indianapolis Center
08:08PM 40.5053 -84.7983 45° Northeast 461 531 24,900 -1,620 Descending Indianapolis Center
08:09PM 40.6144 -84.6583 44° Northeast 454 522 23,300 -960 Descending Indianapolis Center
08:10PM 40.7017 -84.5472 44° Northeast 439 505 23,000 -180 Descending Indianapolis Center
08:11PM 40.7925 -84.4303 44° Northeast 452 520 23,000  Level Indianapolis Center
08:12PM 40.9103 -84.3792 18° North 459 528 23,000 -540 Level Indianapolis Center
08:13PM 41.0314 -84.4028 352° North 442 509 22,000 -1,140 Descending Indianapolis Center
08:14PM 41.1500 -84.4275 351° North 436 502 20,700 -1,260 Descending Indianapolis Center
08:15PM 41.2217 -84.4375 354° North 393 452 19,800 -2,520 Descending Cleveland Center
08:16PM 41.3444 -84.4447 357° North 372 428 16,300 -2,400 Descending Cleveland Center
08:17PM 41.4439 -84.4506 357° North 363 418 14,900 -660 Descending Cleveland Center
08:18PM 41.5411 -84.4211 13° North 381 438 15,000  Climbing Cleveland Center
08:19PM 41.6219 -84.3261 41° Northeast 393 452 14,900 -240 Descending Cleveland Center
08:20PM 41.6706 -84.2681 42° Northeast 384 442 14,700 -1,200 Descending Cleveland Center
08:20PM 41.7069 -84.2250 41° Northeast 386 444 13,700 -2,040 Descending Cleveland Center
08:21PM 41.7642 -84.1564 42° Northeast 359 413 12,200 -1,680 Descending Cleveland Center
08:21PM 41.7794 -84.1333 48° Northeast 366 421 12,000 -180 Descending Cleveland Center
08:22PM 41.8347 -84.0411 51° Northeast 381 438 12,000  Level Cleveland Center
08:22PM 41.8442 -84.0236 54° Northeast 375 432 12,000 -540 Level Cleveland Center
08:23PM 41.9039 -83.9167 53° Northeast 396 456 11,500 -600 Descending Cleveland Center
08:23PM 41.9092 -83.9058 57° Northeast 392 451 11,400 -540 Descending Cleveland Center
08:24PM 41.9822 -83.8047 46° Northeast 374 430 10,900 -540 Descending Cleveland Center
08:24PM 41.9825 -83.8036 71° East 380 437 10,900 60 Level Cleveland Center
08:25PM 42.0564 -83.7200 40° Northeast 381 438 11,000  Climbing Cleveland Center
08:25PM 42.0783 -83.6942 41° Northeast 379 436 10,900 -120 Descending Cleveland Center
08:26PM 42.1347 -83.6331 39° Northeast 346 398 10,900 60 Level Cleveland Center
08:26PM 42.1522 -83.6092 45° Northeast 352 405 11,000 60 Climbing Cleveland Center
08:27PM 42.1969 -83.5631 37° Northeast 258 297 11,000  Level Cleveland Center
08:27PM 42.2147 -83.5419 41° Northeast 275 316 11,000 -600 Level Cleveland Center
08:28PM 42.2597 -83.5100 28° Northeast 244 281 10,400 -1,020 Descending Cleveland Center
08:28PM 42.2750 -83.4978 31° Northeast 247 284 10,000 -1,620 Descending Cleveland Center
08:29PM 42.3203 -83.4622 30° Northeast 254 292 8,800 -1,560 Descending Cleveland Center
08:29PM 42.3372 -83.4461 35° Northeast 256 295 8,400 -1,320 Descending Cleveland Center
08:30PM 42.3825 -83.4147 27° Northeast 250 288 7,500 -1,320 Descending Cleveland Center
08:30PM 42.3983 -83.3992 36° Northeast 251 289 7,100 -1,320 Descending Cleveland Center
08:31PM 42.4319 -83.3453 50° Northeast 240 276 6,100 -1,200 Descending Cleveland Center
08:31PM 42.4289 -83.3294 105° East 239 275 5,900 -1,260 Descending Cleveland Center
08:32PM 42.4069 -83.2628 114° Southeast 218 251 4,800 -1,200 Descending Cleveland Center
08:32PM 42.4019 -83.2517 121° Southeast 232 267 4,700 -1,380 Descending Cleveland Center
08:33PM 42.3631 -83.2339 161° South 189 217 3,600 -1,320 Descending Cleveland Center
08:33PM 42.3508 -83.2325 175° South 199 229 3,400 -840 Descending Cleveland Center
08:34PM 42.3169 -83.2614 212° Southwest 181 208 2,800 -900 Descending Cleveland Center
08:34PM 42.3069 -83.2675 204° Southwest 184 212 2,500 -720 Descending Cleveland Center
08:35PM 42.2789 -83.2928 214° Southwest 140 161 2,100 -720 Descending Cleveland Center
08:36PM 42.2697 -83.2969 199° South 161 185 1,800 -900 Descending Cleveland Center
08:36PM 42.2436 -83.3161 209° Southwest 135 155 1,200 -900 Descending Cleveland Center
08:37PM 42.2300 -83.3250 206° Southwest 137 158 900 -720 Descending Cleveland Center